Time;durP1;ratioP1;P1;durP2;ratioP2;P2;SDS_P1;SDS_P2;PMS_P1;PMS_P2;Temp;Humidity;BMP_temperature;BMP_pressure;BME280_temperature;BME280_humidity;BME280_pressure;Samples;Min_cycle;Max_cycle;Signal;HPM_P1;HPM_P2
2021/04/10 00:14:47;;;;;;;0.15;0.15;;;;;;;;;;5087328;28;20353;-60
2021/04/10 00:17:13;;;;;;;0.90;0.90;;;;;;;;;;5080674;28;20512;-60
2021/04/10 00:19:39;;;;;;;0.20;0.20;;;;;;;;;;5082174;28;20120;-60
2021/04/10 00:22:06;;;;;;;0.10;0.10;;;;;;;;;;5082472;28;20024;-61
2021/04/10 00:24:32;;;;;;;0.10;0.10;;;;;;;;;;5082359;28;20013;-60
2021/04/10 00:26:58;;;;;;;0.20;0.20;;;;;;;;;;5085465;28;20028;-60
2021/04/10 00:29:24;;;;;;;0.20;0.20;;;;;;;;;;5081864;28;20100;-60
2021/04/10 00:31:50;;;;;;;0.20;0.20;;;;;;;;;;5073140;28;20021;-60
2021/04/10 00:34:16;;;;;;;0.10;0.10;;;;;;;;;;5077715;28;20028;-61
2021/04/10 00:36:42;;;;;;;0.15;0.15;;;;;;;;;;5080595;28;20072;-60
2021/04/10 00:39:08;;;;;;;0.20;0.20;;;;;;;;;;5071445;28;20036;-61
2021/04/10 00:41:34;;;;;;;0.10;0.10;;;;;;;;;;5069739;28;20404;-61
2021/04/10 00:44:00;;;;;;;0.10;0.10;;;;;;;;;;5083655;28;20051;-61
2021/04/10 00:46:26;;;;;;;0.10;0.10;;;;;;;;;;5074320;28;20059;-61
2021/04/10 00:48:52;;;;;;;0.20;0.20;;;;;;;;;;5074109;28;20481;-61
2021/04/10 00:51:19;;;;;;;1.38;1.33;;;;;;;;;;5074182;28;20043;-60
2021/04/10 00:53:45;;;;;;;0.10;0.10;;;;;;;;;;5068139;28;20025;-61
2021/04/10 00:56:12;;;;;;;0.20;0.20;;;;;;;;;;5083450;28;20044;-61
2021/04/10 00:58:38;;;;;;;0.10;0.10;;;;;;;;;;5081156;28;20016;-61
2021/04/10 01:01:05;;;;;;;0.13;0.13;;;;;;;;;;5081090;28;20024;-61
2021/04/10 01:03:32;;;;;;;0.10;0.10;;;;;;;;;;5079347;28;20090;-61
2021/04/10 01:05:58;;;;;;;0.10;0.10;;;;;;;;;;5082736;28;20020;-61
2021/04/10 01:08:27;;;;;;;0.15;0.15;;;;;;;;;;5083835;28;20118;-61
2021/04/10 01:10:55;;;;;;;0.17;0.17;;;;;;;;;;5081538;28;20034;-61
2021/04/10 01:13:21;;;;;;;0.10;0.10;;;;;;;;;;5080724;28;20048;-61
2021/04/10 01:15:47;;;;;;;0.20;0.20;;;;;;;;;;5066960;28;20021;-61
2021/04/10 01:18:28;;;;;;;0.43;0.43;;;;;;;;;;5067962;28;20036;-61
2021/04/10 01:21:06;;;;;;;0.17;0.17;;;;;;;;;;5054667;28;20498;-61
2021/04/10 01:23:52;;;;;;;0.20;0.20;;;;;;;;;;5070139;28;20127;-60
2021/04/10 01:26:28;;;;;;;0.32;0.15;;;;;;;;;;5067692;28;20036;-61
2021/04/10 01:28:56;;;;;;;0.10;0.10;;;;;;;;;;5067240;28;20025;-60
2021/04/10 01:31:25;;;;;;;0.10;0.10;;;;;;;;;;5066493;28;20028;-60
2021/04/10 01:33:54;;;;;;;0.10;0.10;;;;;;;;;;5066941;28;20031;-60
2021/04/10 01:36:27;;;;;;;0.10;0.10;;;;;;;;;;5067172;28;20029;-61
2021/04/10 01:38:54;;;;;;;0.10;0.10;;;;;;;;;;5070271;28;20039;-60
2021/04/10 01:41:22;;;;;;;0.10;0.10;;;;;;;;;;5069691;28;20017;-60
2021/04/10 01:43:49;;;;;;;0.10;0.10;;;;;;;;;;5067502;28;20131;-60
2021/04/10 01:46:17;;;;;;;0.03;0.03;;;;;;;;;;5066470;28;20100;-60
2021/04/10 01:48:44;;;;;;;0.10;0.10;;;;;;;;;;5066896;28;20036;-60
2021/04/10 01:51:11;;;;;;;0.10;0.10;;;;;;;;;;5068034;28;20040;-61
2021/04/10 01:53:38;;;;;;;0.10;0.10;;;;;;;;;;5070075;28;20033;-60
2021/04/10 01:56:06;;;;;;;0.10;0.10;;;;;;;;;;5072477;28;20036;-60
2021/04/10 01:58:42;;;;;;;0.10;0.10;;;;;;;;;;5069077;28;20039;-60
2021/04/10 02:01:14;;;;;;;0.65;0.65;;;;;;;;;;5069818;28;20036;-60
2021/04/10 02:03:46;;;;;;;0.10;0.10;;;;;;;;;;5068214;28;20128;-61
2021/04/10 02:06:14;;;;;;;0.10;0.10;;;;;;;;;;5071551;28;20025;-60
2021/04/10 02:08:45;;;;;;;0.10;0.10;;;;;;;;;;5070223;28;20131;-61
2021/04/10 02:11:24;;;;;;;0.20;0.20;;;;;;;;;;5069871;28;20505;-61
2021/04/10 02:14:05;;;;;;;0.10;0.10;;;;;;;;;;5071371;28;20098;-60
2021/04/10 02:16:47;;;;;;;;;;;;;;;;;;5069423;28;20036;-61
2021/04/10 02:19:16;;;;;;;0.10;0.10;;;;;;;;;;5069749;28;19912;-60
2021/04/10 02:21:45;;;;;;;0.10;0.10;;;;;;;;;;5068003;28;20035;-60
2021/04/10 02:24:13;;;;;;;0.10;0.10;;;;;;;;;;5070690;28;20505;-61
2021/04/10 02:26:47;;;;;;;0.10;0.10;;;;;;;;;;5068847;28;20115;-60
2021/04/10 02:29:20;;;;;;;0.10;0.10;;;;;;;;;;5070550;28;20541;-60
2021/04/10 02:32:16;;;;;;;0.10;0.10;;;;;;;;;;5069962;28;20542;-60
2021/04/10 02:34:59;;;;;;;0.10;0.10;;;;;;;;;;5093671;28;20462;-60
2021/04/10 02:37:26;;;;;;;1.98;0.82;;;;;;;;;;5069340;28;20398;-59
2021/04/10 02:39:53;;;;;;;0.40;0.40;;;;;;;;;;5068698;28;20074;-60
2021/04/10 02:42:21;;;;;;;0.22;0.22;;;;;;;;;;5066778;28;20083;-61
2021/04/10 02:44:49;;;;;;;0.10;0.10;;;;;;;;;;5067867;28;20106;-60
2021/04/10 02:47:19;;;;;;;2.70;2.42;;;;;;;;;;5070067;28;20091;-61
2021/04/10 02:49:52;;;;;;;0.10;0.10;;;;;;;;;;5068694;28;20493;-60
2021/04/10 02:52:30;;;;;;;0.10;0.10;;;;;;;;;;5066447;28;20035;-60
2021/04/10 02:54:57;;;;;;;1.67;1.58;;;;;;;;;;5069310;28;20035;-60
2021/04/10 02:57:24;;;;;;;0.10;0.10;;;;;;;;;;5067902;28;20521;-60
2021/04/10 02:59:53;;;;;;;1.15;0.98;;;;;;;;;;5067694;28;20113;-60
2021/04/10 03:02:21;;;;;;;0.30;0.30;;;;;;;;;;5070776;28;20051;-61
2021/04/10 03:04:50;;;;;;;0.10;0.10;;;;;;;;;;5069926;28;20032;-60
2021/04/10 03:07:19;;;;;;;1.00;1.00;;;;;;;;;;5048142;28;20025;-60
2021/04/10 03:09:48;;;;;;;0.10;0.10;;;;;;;;;;5068080;28;20024;-60
2021/04/10 03:12:18;;;;;;;0.10;0.10;;;;;;;;;;5066484;28;20525;-60
2021/04/10 03:14:46;;;;;;;0.10;0.10;;;;;;;;;;5053165;28;20498;-59
2021/04/10 03:17:23;;;;;;;0.20;0.20;;;;;;;;;;5082839;28;20047;-60
2021/04/10 03:19:53;;;;;;;0.73;0.73;;;;;;;;;;5069262;28;20037;-60
2021/04/10 03:22:20;;;;;;;10.32;0.60;;;;;;;;;;5066321;28;20107;-61
2021/04/10 03:24:49;;;;;;;0.10;0.10;;;;;;;;;;5067842;28;20020;-61
2021/04/10 03:27:16;;;;;;;0.10;0.10;;;;;;;;;;5067283;28;20056;-60
2021/04/10 03:29:43;;;;;;;0.20;0.20;;;;;;;;;;5067830;28;20051;-60
2021/04/10 03:32:10;;;;;;;0.30;0.30;;;;;;;;;;5071169;28;20107;-60
2021/04/10 03:34:41;;;;;;;0.10;0.10;;;;;;;;;;5067577;28;20048;-61
2021/04/10 03:37:09;;;;;;;0.20;0.20;;;;;;;;;;5068858;28;20409;-61
2021/04/10 03:39:38;;;;;;;0.30;0.28;;;;;;;;;;5067614;28;20473;-60
2021/04/10 03:42:08;;;;;;;0.10;0.10;;;;;;;;;;5068504;28;20024;-61
2021/04/10 03:44:34;;;;;;;0.77;0.75;;;;;;;;;;5067317;28;20036;-60
2021/04/10 03:47:00;;;;;;;0.10;0.10;;;;;;;;;;5069478;28;20021;-60
2021/04/10 03:49:27;;;;;;;0.10;0.10;;;;;;;;;;5066091;28;20029;-61
2021/04/10 03:51:54;;;;;;;0.10;0.10;;;;;;;;;;5065922;28;20031;-60
2021/04/10 03:54:21;;;;;;;0.40;0.40;;;;;;;;;;5068756;28;20113;-60
2021/04/10 03:56:49;;;;;;;0.75;0.75;;;;;;;;;;5065469;28;20016;-61
2021/04/10 03:59:20;;;;;;;0.57;0.20;;;;;;;;;;5070240;28;20111;-60
2021/04/10 04:01:53;;;;;;;1.58;1.48;;;;;;;;;;5070650;28;20025;-61
2021/04/10 04:04:23;;;;;;;0.10;0.10;;;;;;;;;;5067102;28;20037;-60
2021/04/10 04:06:49;;;;;;;0.95;0.32;;;;;;;;;;5068391;28;20043;-59
2021/04/10 04:09:15;;;;;;;0.10;0.10;;;;;;;;;;5067355;28;20029;-60
2021/04/10 04:11:41;;;;;;;0.32;0.32;;;;;;;;;;5068271;28;20070;-61
2021/04/10 04:14:08;;;;;;;0.10;0.10;;;;;;;;;;5070551;28;20056;-60
2021/04/10 04:16:34;;;;;;;0.40;0.40;;;;;;;;;;5068849;28;20024;-61
2021/04/10 04:19:00;;;;;;;2.33;1.50;;;;;;;;;;5068472;28;20029;-60
2021/04/10 04:21:26;;;;;;;0.20;0.20;;;;;;;;;;5068456;28;20098;-60
2021/04/10 04:23:52;;;;;;;0.10;0.10;;;;;;;;;;5068276;28;20498;-60
2021/04/10 04:26:18;;;;;;;0.08;0.08;;;;;;;;;;5069690;28;20027;-60
2021/04/10 04:28:44;;;;;;;0.30;0.30;;;;;;;;;;5069282;28;20493;-60
2021/04/10 04:31:10;;;;;;;0.10;0.10;;;;;;;;;;5067543;28;20020;-60
2021/04/10 04:33:36;;;;;;;0.52;0.52;;;;;;;;;;5068679;28;20111;-61
2021/04/10 04:36:03;;;;;;;0.10;0.10;;;;;;;;;;5069202;28;20059;-60
2021/04/10 04:38:29;;;;;;;0.30;0.30;;;;;;;;;;5069448;28;20031;-61
2021/04/10 04:40:55;;;;;;;0.20;0.20;;;;;;;;;;5066630;28;20035;-60
2021/04/10 04:43:21;;;;;;;0.10;0.10;;;;;;;;;;5068255;28;20036;-60
2021/04/10 04:45:47;;;;;;;0.10;0.10;;;;;;;;;;5068159;28;20021;-61
2021/04/10 04:48:13;;;;;;;0.15;0.15;;;;;;;;;;5068537;28;20116;-60
2021/04/10 04:50:39;;;;;;;0.65;0.65;;;;;;;;;;5071353;28;22585;-61
2021/04/10 04:53:05;;;;;;;0.10;0.10;;;;;;;;;;5074561;28;20032;-61
2021/04/10 04:55:31;;;;;;;0.20;0.20;;;;;;;;;;5072017;28;20025;-60
2021/04/10 04:57:57;;;;;;;0.10;0.10;;;;;;;;;;5072453;28;20036;-60
2021/04/10 05:00:24;;;;;;;0.15;0.15;;;;;;;;;;5072459;28;20020;-61
2021/04/10 05:02:50;;;;;;;0.68;0.68;;;;;;;;;;5069276;28;20119;-60
2021/04/10 05:05:16;;;;;;;0.47;0.47;;;;;;;;;;5073817;28;20028;-60
2021/04/10 05:07:42;;;;;;;1.00;1.00;;;;;;;;;;5070205;28;20025;-60
2021/04/10 05:10:09;;;;;;;0.20;0.20;;;;;;;;;;5069643;28;20029;-61
2021/04/10 05:12:35;;;;;;;1.45;0.60;;;;;;;;;;5068217;28;20021;-60
2021/04/10 05:15:01;;;;;;;1.15;1.08;;;;;;;;;;5069691;28;20037;-60
2021/04/10 05:17:27;;;;;;;0.10;0.10;;;;;;;;;;5072011;28;20506;-60
2021/04/10 05:19:53;;;;;;;0.65;0.57;;;;;;;;;;5072995;28;20040;-60
2021/04/10 05:22:19;;;;;;;0.65;0.65;;;;;;;;;;5070397;28;20505;-60
2021/04/10 05:24:45;;;;;;;0.10;0.10;;;;;;;;;;5069573;28;20028;-60
2021/04/10 05:27:11;;;;;;;0.88;0.88;;;;;;;;;;5070123;28;20012;-60
2021/04/10 05:29:38;;;;;;;1.25;0.90;;;;;;;;;;5071711;28;20044;-60
2021/04/10 05:32:04;;;;;;;0.10;0.10;;;;;;;;;;5072775;28;20028;-60
2021/04/10 05:34:30;;;;;;;0.10;0.10;;;;;;;;;;5069946;28;20031;-60
2021/04/10 05:36:56;;;;;;;0.35;0.35;;;;;;;;;;5069815;28;20021;-60
2021/04/10 05:39:22;;;;;;;0.77;0.30;;;;;;;;;;5068403;28;20125;-60
2021/04/10 05:41:48;;;;;;;0.13;0.13;;;;;;;;;;5054625;28;20109;-60
2021/04/10 05:44:14;;;;;;;0.10;0.10;;;;;;;;;;5072487;28;20048;-60
2021/04/10 05:46:40;;;;;;;0.10;0.10;;;;;;;;;;5068562;28;20017;-60
2021/04/10 05:49:06;;;;;;;0.40;0.40;;;;;;;;;;5070955;28;20941;-60
2021/04/10 05:51:32;;;;;;;0.10;0.10;;;;;;;;;;5069600;28;20028;-60
2021/04/10 05:53:59;;;;;;;1.25;1.15;;;;;;;;;;5069005;28;20033;-60
2021/04/10 05:56:25;;;;;;;0.17;0.17;;;;;;;;;;5070841;28;20021;-60
2021/04/10 05:58:51;;;;;;;0.70;0.70;;;;;;;;;;5070184;28;20036;-60
2021/04/10 06:01:17;;;;;;;0.10;0.10;;;;;;;;;;5070207;28;20035;-60
2021/04/10 06:03:43;;;;;;;1.25;0.75;;;;;;;;;;5068815;28;20053;-60
2021/04/10 06:06:11;;;;;;;0.35;0.35;;;;;;;;;;5068821;28;20131;-60
2021/04/10 06:08:37;;;;;;;0.22;0.22;;;;;;;;;;5068171;28;20067;-60
2021/04/10 06:11:03;;;;;;;0.38;0.38;;;;;;;;;;5070672;28;20029;-60
2021/04/10 06:13:29;;;;;;;0.10;0.10;;;;;;;;;;5068170;28;20044;-59
2021/04/10 06:15:55;;;;;;;1.88;0.45;;;;;;;;;;5068732;28;20027;-60
2021/04/10 06:18:22;;;;;;;0.00;0.00;;;;;;;;;;5068114;28;20036;-60
2021/04/10 06:20:48;;;;;;;0.52;0.52;;;;;;;;;;5065046;28;20025;-60
2021/04/10 06:23:14;;;;;;;0.20;0.15;;;;;;;;;;5070137;28;20050;-60
2021/04/10 06:25:40;;;;;;;0.13;0.13;;;;;;;;;;5068121;28;20330;-60
2021/04/10 06:28:06;;;;;;;0.35;0.35;;;;;;;;;;5068553;28;20028;-60
2021/04/10 06:30:33;;;;;;;0.10;0.10;;;;;;;;;;5068857;28;20016;-60
2021/04/10 06:32:59;;;;;;;0.50;0.50;;;;;;;;;;5068836;28;20028;-60
2021/04/10 06:35:25;;;;;;;0.10;0.10;;;;;;;;;;5071460;28;20052;-60
2021/04/10 06:37:51;;;;;;;0.10;0.10;;;;;;;;;;5069707;28;20036;-60
2021/04/10 06:40:17;;;;;;;0.35;0.35;;;;;;;;;;5068661;28;20095;-60
2021/04/10 06:42:43;;;;;;;0.10;0.10;;;;;;;;;;5068229;28;20028;-60
2021/04/10 06:45:10;;;;;;;0.20;0.20;;;;;;;;;;5068824;28;20032;-60
2021/04/10 06:47:36;;;;;;;0.10;0.10;;;;;;;;;;5068990;28;20086;-59
2021/04/10 06:50:04;;;;;;;1.15;0.38;;;;;;;;;;5069631;28;20032;-59
2021/04/10 06:52:31;;;;;;;0.03;0.03;;;;;;;;;;5067096;28;20025;-60
2021/04/10 06:55:02;;;;;;;0.20;0.20;;;;;;;;;;5068435;28;20027;-59
2021/04/10 06:57:28;;;;;;;0.10;0.10;;;;;;;;;;5069796;28;20059;-59
2021/04/10 06:59:55;;;;;;;3.03;0.77;;;;;;;;;;5067533;28;20384;-60
2021/04/10 07:02:22;;;;;;;0.65;0.65;;;;;;;;;;5063801;28;20027;-59
2021/04/10 07:04:48;;;;;;;0.10;0.10;;;;;;;;;;5064848;28;20081;-59
2021/04/10 07:07:14;;;;;;;0.13;0.13;;;;;;;;;;5065974;28;20078;-60
2021/04/10 07:09:41;;;;;;;0.00;0.00;;;;;;;;;;5065301;28;20060;-59
2021/04/10 07:12:08;;;;;;;0.08;0.08;;;;;;;;;;5062109;28;20032;-59
2021/04/10 07:14:34;;;;;;;0.10;0.10;;;;;;;;;;5061810;28;20048;-59
2021/04/10 07:17:01;;;;;;;0.32;0.32;;;;;;;;;;5064483;28;20165;-59
2021/04/10 07:19:27;;;;;;;0.77;0.77;;;;;;;;;;5060454;28;20017;-59
2021/04/10 07:22:04;;;;;;;0.10;0.10;;;;;;;;;;5062389;28;20025;-59
2021/04/10 07:24:38;;;;;;;2.72;0.73;;;;;;;;;;5060929;28;20152;-59
2021/04/10 07:27:04;;;;;;;0.10;0.10;;;;;;;;;;5066308;28;20029;-59
2021/04/10 07:29:30;;;;;;;1.83;1.75;;;;;;;;;;5066739;28;20053;-59
2021/04/10 07:31:57;;;;;;;0.08;0.08;;;;;;;;;;5066429;28;20020;-60
2021/04/10 07:34:23;;;;;;;0.10;0.10;;;;;;;;;;5064551;28;20494;-59
2021/04/10 07:36:56;;;;;;;0.38;0.38;;;;;;;;;;5062240;28;20444;-59
2021/04/10 07:39:22;;;;;;;1.60;0.60;;;;;;;;;;5064390;28;20037;-59
2021/04/10 07:42:05;;;;;;;1.05;0.90;;;;;;;;;;5066518;28;20564;-59
2021/04/10 07:44:38;;;;;;;0.75;0.32;;;;;;;;;;5064282;28;20037;-57
2021/04/10 07:47:05;;;;;;;0.03;0.03;;;;;;;;;;5059833;28;20059;-59
2021/04/10 07:49:32;;;;;;;0.30;0.30;;;;;;;;;;5065608;28;20030;-59
2021/04/10 07:52:01;;;;;;;0.10;0.10;;;;;;;;;;5067952;28;20025;-60
2021/04/10 07:54:28;;;;;;;0.10;0.10;;;;;;;;;;5067950;28;20039;-59
2021/04/10 07:56:54;;;;;;;0.50;0.50;;;;;;;;;;5067793;28;20467;-59
2021/04/10 07:59:20;;;;;;;0.10;0.10;;;;;;;;;;5070387;28;20100;-59
2021/04/10 08:01:47;;;;;;;0.98;0.90;;;;;;;;;;5066737;28;20119;-59
2021/04/10 08:04:16;;;;;;;0.10;0.10;;;;;;;;;;5067226;28;20063;-60
2021/04/10 08:07:01;;;;;;;0.15;0.15;;;;;;;;;;5068727;28;20032;-59
2021/04/10 08:09:32;;;;;;;0.05;0.05;;;;;;;;;;5065156;28;20036;-58
2021/04/10 08:11:58;;;;;;;0.10;0.10;;;;;;;;;;5066595;28;20029;-59
2021/04/10 08:14:24;;;;;;;0.30;0.30;;;;;;;;;;5069367;28;20041;-59
2021/04/10 08:16:51;;;;;;;2.63;1.65;;;;;;;;;;5064550;28;20028;-59
2021/04/10 08:19:27;;;;;;;1.08;0.65;;;;;;;;;;5065536;28;20028;-59
2021/04/10 08:21:53;;;;;;;0.10;0.10;;;;;;;;;;5065511;28;20047;-59
2021/04/10 08:24:27;;;;;;;0.45;0.30;;;;;;;;;;5066963;28;20043;-59
2021/04/10 08:27:13;;;;;;;0.20;0.17;;;;;;;;;;5055656;28;20438;-59
2021/04/10 08:29:40;;;;;;;0.68;0.68;;;;;;;;;;5071024;28;20025;-59
2021/04/10 08:32:07;;;;;;;12.35;1.00;;;;;;;;;;5072493;28;20024;-58
2021/04/10 08:34:33;;;;;;;0.55;0.55;;;;;;;;;;5069288;28;20092;-59
2021/04/10 08:37:04;;;;;;;0.10;0.10;;;;;;;;;;5072208;28;20051;-60
2021/04/10 08:39:51;;;;;;;0.90;0.63;;;;;;;;;;5070103;28;20025;-59
2021/04/10 08:42:18;;;;;;;0.10;0.10;;;;;;;;;;5071714;28;20024;-60
2021/04/10 08:44:48;;;;;;;0.43;0.35;;;;;;;;;;5071655;28;20040;-59
2021/04/10 08:47:15;;;;;;;0.10;0.10;;;;;;;;;;5072525;28;20127;-59
2021/04/10 08:49:48;;;;;;;0.10;0.10;;;;;;;;;;5070975;28;20028;-59
2021/04/10 08:52:19;;;;;;;0.77;0.77;;;;;;;;;;5070897;28;20028;-59
2021/04/10 08:54:46;;;;;;;0.10;0.10;;;;;;;;;;5072038;28;20028;-59
2021/04/10 08:57:14;;;;;;;0.77;0.77;;;;;;;;;;5070676;28;20475;-59
2021/04/10 08:59:45;;;;;;;0.10;0.10;;;;;;;;;;5071587;28;20029;-59
2021/04/10 09:02:19;;;;;;;1.08;0.45;;;;;;;;;;5059070;28;20036;-59
2021/04/10 09:04:54;;;;;;;0.22;0.22;;;;;;;;;;5060776;28;20036;-59
2021/04/10 09:07:20;;;;;;;;;;;;;;;;;;5054180;28;20028;-59
2021/04/10 09:09:46;;;;;;;;;;;;;;;;;;5052478;28;20437;-59
2021/04/10 09:12:17;;;;;;;0.10;0.10;;;;;;;;;;5060920;28;19916;-59
2021/04/10 09:14:44;;;;;;;0.30;0.30;;;;;;;;;;5055077;28;20496;-59
2021/04/10 09:17:10;;;;;;;0.20;0.20;;;;;;;;;;5053717;28;20040;-59
2021/04/10 09:19:37;;;;;;;0.20;0.20;;;;;;;;;;5051385;28;20033;-59
2021/04/10 09:22:03;;;;;;;0.65;0.65;;;;;;;;;;5056278;28;20016;-59
2021/04/10 09:24:32;;;;;;;0.43;0.43;;;;;;;;;;5051756;28;20052;-59
2021/04/10 09:27:03;;;;;;;0.20;0.20;;;;;;;;;;5052151;28;20052;-59
2021/04/10 09:29:41;;;;;;;0.10;0.10;;;;;;;;;;5058525;28;20045;-59
2021/04/10 09:32:08;;;;;;;0.10;0.10;;;;;;;;;;5063195;28;20033;-58
2021/04/10 09:34:54;;;;;;;0.10;0.10;;;;;;;;;;5058704;28;20024;-59
2021/04/10 09:37:20;;;;;;;;;;;;;;;;;;5059575;28;20393;-59
2021/04/10 09:39:45;;;;;;;;;;;;;;;;;;5055869;28;19920;-59
2021/04/10 09:42:11;;;;;;;;;;;;;;;;;;5058506;28;20285;-59
2021/04/10 09:44:56;;;;;;;0.47;0.35;;;;;;;;;;5063861;28;19925;-61
2021/04/10 09:47:22;;;;;;;0.65;0.50;;;;;;;;;;5060044;28;20167;-59
2021/04/10 09:49:48;;;;;;;2.60;0.32;;;;;;;;;;5051034;28;20092;-59
2021/04/10 09:52:16;;;;;;;0.90;0.57;;;;;;;;;;5061228;28;20046;-59
2021/04/10 09:54:43;;;;;;;0.10;0.10;;;;;;;;;;5057239;28;20029;-60
2021/04/10 09:57:18;;;;;;;0.20;0.20;;;;;;;;;;5056336;28;20048;-59
2021/04/10 09:59:45;;;;;;;0.20;0.20;;;;;;;;;;5062460;28;20040;-59
2021/04/10 10:02:11;;;;;;;3.28;0.55;;;;;;;;;;5059394;28;20159;-59
2021/04/10 10:04:37;;;;;;;0.20;0.20;;;;;;;;;;5056998;28;20541;-59
2021/04/10 10:07:03;;;;;;;0.28;0.28;;;;;;;;;;5054892;28;20017;-59
2021/04/10 10:09:30;;;;;;;0.10;0.10;;;;;;;;;;5055089;28;20039;-59
2021/04/10 10:11:56;;;;;;;0.98;0.75;;;;;;;;;;5061998;28;20021;-59
2021/04/10 10:14:24;;;;;;;1.20;0.93;;;;;;;;;;5062668;28;20076;-59
2021/04/10 10:16:50;;;;;;;0.73;0.73;;;;;;;;;;5050723;28;20033;-59
2021/04/10 10:19:17;;;;;;;0.10;0.10;;;;;;;;;;5053278;28;20403;-59
2021/04/10 10:21:43;;;;;;;0.10;0.10;;;;;;;;;;5063027;28;20040;-59
2021/04/10 10:24:09;;;;;;;0.10;0.10;;;;;;;;;;5068977;28;20510;-59
2021/04/10 10:26:38;;;;;;;0.32;0.32;;;;;;;;;;5070832;28;20104;-59
2021/04/10 10:29:07;;;;;;;0.80;0.73;;;;;;;;;;5070549;28;20059;-59
2021/04/10 10:31:42;;;;;;;4.22;1.10;;;;;;;;;;5068807;28;20024;-59
2021/04/10 10:34:10;;;;;;;0.82;0.73;;;;;;;;;;5068358;28;20047;-59
2021/04/10 10:36:39;;;;;;;0.55;0.32;;;;;;;;;;5070870;28;20602;-60
2021/04/10 10:39:07;;;;;;;0.38;0.38;;;;;;;;;;5069985;28;20069;-60
2021/04/10 10:41:43;;;;;;;3.67;2.25;;;;;;;;;;5070577;28;20020;-59
2021/04/10 10:44:10;;;;;;;1.38;1.08;;;;;;;;;;5068612;28;20042;-59
2021/04/10 10:46:36;;;;;;;1.25;1.15;;;;;;;;;;5069141;28;20166;-59
2021/04/10 10:49:07;;;;;;;1.27;1.10;;;;;;;;;;5068160;28;20051;-60
2021/04/10 10:51:35;;;;;;;1.35;1.20;;;;;;;;;;5068560;28;20032;-59
2021/04/10 10:54:01;;;;;;;0.25;0.25;;;;;;;;;;5069567;28;20031;-59
2021/04/10 10:56:29;;;;;;;2.80;2.55;;;;;;;;;;5063436;28;20036;-59
2021/04/10 10:58:59;;;;;;;0.30;0.30;;;;;;;;;;5065728;28;20532;-59
2021/04/10 11:01:34;;;;;;;3.50;1.40;;;;;;;;;;5067622;28;20469;-59
2021/04/10 11:04:07;;;;;;;2.00;1.00;;;;;;;;;;5067151;28;20032;-59
2021/04/10 11:06:34;;;;;;;0.45;0.43;;;;;;;;;;5065886;28;20029;-59
2021/04/10 11:09:01;;;;;;;0.45;0.30;;;;;;;;;;5067120;28;20024;-59
2021/04/10 11:11:34;;;;;;;0.30;0.30;;;;;;;;;;5065520;28;20141;-58
2021/04/10 11:14:01;;;;;;;0.10;0.10;;;;;;;;;;5068304;28;20178;-59
2021/04/10 11:16:27;;;;;;;0.10;0.10;;;;;;;;;;5064252;28;20204;-59
2021/04/10 11:18:54;;;;;;;3.40;1.63;;;;;;;;;;5064159;28;20036;-59
2021/04/10 11:21:21;;;;;;;0.10;0.10;;;;;;;;;;5064422;28;20031;-59
2021/04/10 11:23:59;;;;;;;0.20;0.20;;;;;;;;;;5064649;28;20121;-59
2021/04/10 11:26:31;;;;;;;0.45;0.45;;;;;;;;;;5064824;28;20024;-59
2021/04/10 11:29:16;;;;;;;0.10;0.10;;;;;;;;;;5066300;28;20032;-59
2021/04/10 11:31:42;;;;;;;1.60;1.02;;;;;;;;;;5063660;28;20031;-59
2021/04/10 11:34:27;;;;;;;0.70;0.70;;;;;;;;;;5063637;28;20028;-59
2021/04/10 11:36:55;;;;;;;0.20;0.20;;;;;;;;;;5062081;28;20068;-60
2021/04/10 11:39:21;;;;;;;1.50;0.85;;;;;;;;;;5068742;28;20047;-59
2021/04/10 11:41:47;;;;;;;0.28;0.28;;;;;;;;;;5065970;28;20145;-59
2021/04/10 11:44:14;;;;;;;0.10;0.10;;;;;;;;;;5066035;28;20040;-59
2021/04/10 11:46:40;;;;;;;0.40;0.40;;;;;;;;;;5067265;28;20382;-59
2021/04/10 11:49:06;;;;;;;1.20;1.10;;;;;;;;;;5056891;28;20025;-59
2021/04/10 11:51:33;;;;;;;0.68;0.63;;;;;;;;;;5065114;28;20027;-60
2021/04/10 11:53:59;;;;;;;0.20;0.20;;;;;;;;;;5067739;28;20025;-60
2021/04/10 11:56:26;;;;;;;0.30;0.30;;;;;;;;;;5066505;28;20482;-60
2021/04/10 11:59:08;;;;;;;0.43;0.43;;;;;;;;;;5067957;28;20028;-59
2021/04/10 12:01:34;;;;;;;0.10;0.10;;;;;;;;;;5065985;28;20086;-59
2021/04/10 12:04:05;;;;;;;0.20;0.20;;;;;;;;;;5067327;28;20064;-59
2021/04/10 12:06:41;;;;;;;2.53;0.63;;;;;;;;;;5064523;28;20025;-59
2021/04/10 12:09:11;;;;;;;0.65;0.65;;;;;;;;;;5067535;28;20036;-59
2021/04/10 12:11:38;;;;;;;0.10;0.10;;;;;;;;;;5068236;28;20056;-59
2021/04/10 12:14:05;;;;;;;0.90;0.32;;;;;;;;;;5063264;28;20056;-60
2021/04/10 12:16:31;;;;;;;2.78;0.85;;;;;;;;;;5063990;28;20032;-59
2021/04/10 12:18:57;;;;;;;1.20;1.10;;;;;;;;;;5061072;28;20070;-59
2021/04/10 12:21:23;;;;;;;0.30;0.30;;;;;;;;;;5066277;28;20068;-59
2021/04/10 12:23:49;;;;;;;0.10;0.10;;;;;;;;;;5050261;28;20033;-59
2021/04/10 12:26:15;;;;;;;1.80;1.70;;;;;;;;;;5054800;28;20556;-59
2021/04/10 12:28:42;;;;;;;0.10;0.10;;;;;;;;;;5064718;28;20069;-59
2021/04/10 12:31:11;;;;;;;0.25;0.17;;;;;;;;;;5058250;28;20056;-60
2021/04/10 12:33:40;;;;;;;0.20;0.20;;;;;;;;;;5055394;28;20021;-59
2021/04/10 12:36:07;;;;;;;0.47;0.30;;;;;;;;;;5053375;28;20021;-59
2021/04/10 12:38:34;;;;;;;0.57;0.50;;;;;;;;;;5052271;28;20415;-59
2021/04/10 12:41:00;;;;;;;1.95;1.55;;;;;;;;;;5054936;28;20023;-59
2021/04/10 12:43:26;;;;;;;6.28;2.25;;;;;;;;;;5054940;28;20479;-59
2021/04/10 12:45:52;;;;;;;0.10;0.10;;;;;;;;;;5055082;28;20029;-59
2021/04/10 12:48:18;;;;;;;0.45;0.45;;;;;;;;;;5054847;28;20121;-59
2021/04/10 12:50:44;;;;;;;0.75;0.50;;;;;;;;;;5050942;28;20033;-59
2021/04/10 12:53:10;;;;;;;0.28;0.28;;;;;;;;;;5054338;28;20058;-59
2021/04/10 12:55:36;;;;;;;3.05;1.00;;;;;;;;;;5061769;28;20025;-60
2021/04/10 12:58:02;;;;;;;3.60;2.92;;;;;;;;;;5063322;28;20024;-59
2021/04/10 13:00:28;;;;;;;0.50;0.50;;;;;;;;;;5059530;28;20025;-59
2021/04/10 13:02:55;;;;;;;1.08;0.82;;;;;;;;;;5064575;28;20064;-59
2021/04/10 13:05:21;;;;;;;1.17;0.88;;;;;;;;;;5065578;28;20024;-59
2021/04/10 13:07:48;;;;;;;1.23;0.40;;;;;;;;;;5052904;28;20074;-59
2021/04/10 13:10:15;;;;;;;0.45;0.45;;;;;;;;;;5063393;28;20120;-59
2021/04/10 13:12:42;;;;;;;0.45;0.45;;;;;;;;;;5064999;28;20051;-59
2021/04/10 13:15:09;;;;;;;0.10;0.10;;;;;;;;;;5065522;28;20028;-59
2021/04/10 13:17:36;;;;;;;0.60;0.57;;;;;;;;;;5067305;28;20035;-59
2021/04/10 13:20:04;;;;;;;0.10;0.10;;;;;;;;;;5065196;28;20025;-59
2021/04/10 13:22:31;;;;;;;0.60;0.60;;;;;;;;;;5062292;28;20031;-59
2021/04/10 13:24:57;;;;;;;0.40;0.40;;;;;;;;;;5061663;28;20115;-60
2021/04/10 13:27:24;;;;;;;0.40;0.40;;;;;;;;;;5061094;28;20081;-59
2021/04/10 13:29:50;;;;;;;0.68;0.40;;;;;;;;;;5053530;28;20028;-58
2021/04/10 13:32:16;;;;;;;1.20;0.40;;;;;;;;;;5070574;28;20067;-59
2021/04/10 13:34:42;;;;;;;1.60;1.15;;;;;;;;;;5069464;28;20063;-58
2021/04/10 13:37:09;;;;;;;1.00;0.57;;;;;;;;;;5062740;28;20576;-59
2021/04/10 13:39:35;;;;;;;0.47;0.40;;;;;;;;;;5054792;28;20037;-59
2021/04/10 13:42:01;;;;;;;0.10;0.10;;;;;;;;;;5070096;28;20020;-59
2021/04/10 13:44:27;;;;;;;0.20;0.20;;;;;;;;;;5066649;28;20040;-59
2021/04/10 13:46:53;;;;;;;0.35;0.35;;;;;;;;;;5064639;28;20032;-59
2021/04/10 13:49:19;;;;;;;0.40;0.40;;;;;;;;;;5068476;28;20039;-59
2021/04/10 13:51:45;;;;;;;0.22;0.20;;;;;;;;;;5067502;28;20098;-59
2021/04/10 13:54:12;;;;;;;0.43;0.43;;;;;;;;;;5066659;28;20025;-59
2021/04/10 13:56:38;;;;;;;0.45;0.45;;;;;;;;;;5068445;28;20029;-59
2021/04/10 13:59:04;;;;;;;0.30;0.30;;;;;;;;;;5068993;28;20032;-59
2021/04/10 14:01:30;;;;;;;11.65;10.93;;;;;;;;;;5066880;28;20078;-59
2021/04/10 14:03:57;;;;;;;1.58;0.85;;;;;;;;;;5066725;28;20051;-59
2021/04/10 14:06:24;;;;;;;0.63;0.63;;;;;;;;;;5067558;28;20086;-59
2021/04/10 14:08:51;;;;;;;0.40;0.40;;;;;;;;;;5070682;28;20024;-59
2021/04/10 14:11:17;;;;;;;0.45;0.45;;;;;;;;;;5072300;28;20032;-59
2021/04/10 14:13:43;;;;;;;0.38;0.38;;;;;;;;;;5068656;28;20066;-59
2021/04/10 14:16:11;;;;;;;0.40;0.40;;;;;;;;;;5069134;28;20075;-59
2021/04/10 14:18:37;;;;;;;0.17;0.17;;;;;;;;;;5069109;28;20040;-59
2021/04/10 14:21:05;;;;;;;0.38;0.35;;;;;;;;;;5068759;28;20033;-59
2021/04/10 14:23:35;;;;;;;2.33;2.00;;;;;;;;;;5071548;28;20550;-59
2021/04/10 14:26:03;;;;;;;1.73;0.90;;;;;;;;;;5082290;28;20040;-58
2021/04/10 14:28:30;;;;;;;5.75;1.17;;;;;;;;;;5066124;28;20033;-59
2021/04/10 14:30:56;;;;;;;1.00;0.90;;;;;;;;;;5067050;28;20059;-59
2021/04/10 14:33:22;;;;;;;0.10;0.10;;;;;;;;;;5068433;28;20060;-59
2021/04/10 14:35:50;;;;;;;0.52;0.52;;;;;;;;;;5068586;28;20546;-59
2021/04/10 14:38:16;;;;;;;7.68;1.27;;;;;;;;;;5071463;28;20020;-59
2021/04/10 14:40:42;;;;;;;0.40;0.30;;;;;;;;;;5068846;28;20120;-59
2021/04/10 14:43:10;;;;;;;0.10;0.10;;;;;;;;;;5068152;28;20024;-59
2021/04/10 14:45:37;;;;;;;0.17;0.17;;;;;;;;;;5067289;28;20035;-59
2021/04/10 14:48:04;;;;;;;5.90;2.05;;;;;;;;;;5068979;28;20024;-59
2021/04/10 14:50:33;;;;;;;0.77;0.77;;;;;;;;;;5069152;28;20039;-59
2021/04/10 14:52:59;;;;;;;0.25;0.25;;;;;;;;;;5069866;28;20026;-59
2021/04/10 14:55:26;;;;;;;0.10;0.10;;;;;;;;;;5069709;28;20039;-59
2021/04/10 14:57:53;;;;;;;1.30;0.75;;;;;;;;;;5068888;28;20444;-59
2021/04/10 15:00:21;;;;;;;0.28;0.28;;;;;;;;;;5069105;28;20042;-60
2021/04/10 15:02:48;;;;;;;0.82;0.63;;;;;;;;;;5068631;28;20090;-59
2021/04/10 15:05:16;;;;;;;0.35;0.35;;;;;;;;;;5070698;28;20409;-59